Iwo, Nigeria
Current Conditions -  °F | °C
As of 12:00 AM on Thursday 27 Nov 2014 (Local Time) from DBBB Reporting Station
Broken Clouds Broken Clouds  
Wind Chill: 81°   Ceiling: 10000
Heat Index: 88°   Visibility: 6mi
Dew Point: 79°   Wind: 9mph
Humidity: 94%   Direction: 200°SSW
Pressure: 29.83"   Gusts: NA
Location:  7.63°N, 4.18°E
Report Text: DBBB 262300Z 20008KT 9999 SCT011 BKN100 27/26 Q1010 NOSIG
Loading
Personal Weather Stations






























Interactive Weather Map New forecast layout! Learn more

10-Day Weather Forecast

Advertisements
Track Severe Weather on mobile